sensor_id;sensor_type;location;lat;lon;timestamp;P1;durP1;ratioP1;P2;durP2;ratioP2
25962;SDS011;13760;52.588;13.406;2023-12-04T00:02:10;68.35;;;28.40;;
25962;SDS011;13760;52.588;13.406;2023-12-04T00:04:35;66.85;;;29.00;;
25962;SDS011;13760;52.588;13.406;2023-12-04T00:07:01;73.68;;;30.10;;
25962;SDS011;13760;52.588;13.406;2023-12-04T00:09:26;69.00;;;30.27;;
25962;SDS011;13760;52.588;13.406;2023-12-04T00:11:52;77.18;;;30.90;;
25962;SDS011;13760;52.588;13.406;2023-12-04T00:14:17;68.47;;;29.50;;
25962;SDS011;13760;52.588;13.406;2023-12-04T00:16:43;60.55;;;28.40;;
25962;SDS011;13760;52.588;13.406;2023-12-04T00:19:09;74.82;;;30.10;;
25962;SDS011;13760;52.588;13.406;2023-12-04T00:21:35;66.70;;;29.70;;
25962;SDS011;13760;52.588;13.406;2023-12-04T00:24:00;74.07;;;31.55;;
25962;SDS011;13760;52.588;13.406;2023-12-04T00:26:26;62.63;;;28.25;;
25962;SDS011;13760;52.588;13.406;2023-12-04T00:28:51;65.55;;;28.25;;
25962;SDS011;13760;52.588;13.406;2023-12-04T00:31:17;62.13;;;26.95;;
25962;SDS011;13760;52.588;13.406;2023-12-04T00:33:42;62.50;;;28.08;;
25962;SDS011;13760;52.588;13.406;2023-12-04T00:36:08;60.83;;;27.35;;
25962;SDS011;13760;52.588;13.406;2023-12-04T00:38:34;60.55;;;27.63;;
25962;SDS011;13760;52.588;13.406;2023-12-04T00:41:00;65.53;;;27.58;;
25962;SDS011;13760;52.588;13.406;2023-12-04T00:43:25;64.47;;;28.30;;
25962;SDS011;13760;52.588;13.406;2023-12-04T00:45:51;62.92;;;27.10;;
25962;SDS011;13760;52.588;13.406;2023-12-04T00:48:16;61.55;;;27.05;;
25962;SDS011;13760;52.588;13.406;2023-12-04T00:50:42;58.97;;;27.23;;
25962;SDS011;13760;52.588;13.406;2023-12-04T00:53:07;66.10;;;26.88;;
25962;SDS011;13760;52.588;13.406;2023-12-04T00:55:33;63.58;;;27.13;;
25962;SDS011;13760;52.588;13.406;2023-12-04T00:57:58;67.18;;;27.25;;
25962;SDS011;13760;52.588;13.406;2023-12-04T01:00:24;58.58;;;26.80;;
25962;SDS011;13760;52.588;13.406;2023-12-04T01:02:50;66.95;;;27.45;;
25962;SDS011;13760;52.588;13.406;2023-12-04T01:05:16;58.58;;;25.95;;
25962;SDS011;13760;52.588;13.406;2023-12-04T01:07:41;57.17;;;24.77;;
25962;SDS011;13760;52.588;13.406;2023-12-04T01:10:07;57.90;;;25.30;;
25962;SDS011;13760;52.588;13.406;2023-12-04T01:12:33;62.20;;;25.92;;
25962;SDS011;13760;52.588;13.406;2023-12-04T01:14:58;59.10;;;27.20;;
25962;SDS011;13760;52.588;13.406;2023-12-04T01:17:24;59.90;;;25.88;;
25962;SDS011;13760;52.588;13.406;2023-12-04T01:19:49;63.42;;;27.77;;
25962;SDS011;13760;52.588;13.406;2023-12-04T01:22:15;63.78;;;27.35;;
25962;SDS011;13760;52.588;13.406;2023-12-04T01:24:40;65.78;;;27.90;;
25962;SDS011;13760;52.588;13.406;2023-12-04T01:27:06;61.30;;;26.63;;
25962;SDS011;13760;52.588;13.406;2023-12-04T01:29:31;67.38;;;27.63;;
25962;SDS011;13760;52.588;13.406;2023-12-04T01:31:57;62.78;;;26.13;;
25962;SDS011;13760;52.588;13.406;2023-12-04T01:34:22;62.85;;;25.80;;
25962;SDS011;13760;52.588;13.406;2023-12-04T01:36:48;60.42;;;26.83;;
25962;SDS011;13760;52.588;13.406;2023-12-04T01:39:13;64.57;;;28.17;;
25962;SDS011;13760;52.588;13.406;2023-12-04T01:41:39;68.90;;;27.35;;
25962;SDS011;13760;52.588;13.406;2023-12-04T01:44:05;68.43;;;28.67;;
25962;SDS011;13760;52.588;13.406;2023-12-04T01:46:30;64.43;;;26.40;;
25962;SDS011;13760;52.588;13.406;2023-12-04T01:48:56;61.38;;;26.58;;
25962;SDS011;13760;52.588;13.406;2023-12-04T01:51:23;64.10;;;28.92;;
25962;SDS011;13760;52.588;13.406;2023-12-04T01:53:51;66.18;;;27.67;;
25962;SDS011;13760;52.588;13.406;2023-12-04T01:56:17;65.45;;;28.40;;
25962;SDS011;13760;52.588;13.406;2023-12-04T01:58:44;67.15;;;27.40;;
25962;SDS011;13760;52.588;13.406;2023-12-04T02:01:10;65.40;;;28.67;;
25962;SDS011;13760;52.588;13.406;2023-12-04T02:03:36;73.28;;;31.25;;
25962;SDS011;13760;52.588;13.406;2023-12-04T02:06:02;64.50;;;28.60;;
25962;SDS011;13760;52.588;13.406;2023-12-04T02:08:29;70.38;;;27.35;;
25962;SDS011;13760;52.588;13.406;2023-12-04T02:10:55;65.78;;;28.83;;
25962;SDS011;13760;52.588;13.406;2023-12-04T02:13:20;74.60;;;29.65;;
25962;SDS011;13760;52.588;13.406;2023-12-04T02:15:46;72.47;;;30.60;;
25962;SDS011;13760;52.588;13.406;2023-12-04T02:18:17;64.60;;;27.38;;
25962;SDS011;13760;52.588;13.406;2023-12-04T02:20:43;68.75;;;29.20;;
25962;SDS011;13760;52.588;13.406;2023-12-04T02:23:09;65.07;;;28.77;;
25962;SDS011;13760;52.588;13.406;2023-12-04T02:25:34;65.40;;;28.70;;
25962;SDS011;13760;52.588;13.406;2023-12-04T02:28:01;69.90;;;29.58;;
25962;SDS011;13760;52.588;13.406;2023-12-04T02:30:30;74.35;;;30.05;;
25962;SDS011;13760;52.588;13.406;2023-12-04T02:32:58;73.68;;;30.98;;
25962;SDS011;13760;52.588;13.406;2023-12-04T02:35:26;67.63;;;28.35;;
25962;SDS011;13760;52.588;13.406;2023-12-04T02:37:55;78.47;;;29.92;;
25962;SDS011;13760;52.588;13.406;2023-12-04T02:40:23;76.70;;;31.58;;
25962;SDS011;13760;52.588;13.406;2023-12-04T02:42:49;75.55;;;31.02;;
25962;SDS011;13760;52.588;13.406;2023-12-04T02:45:14;81.28;;;31.13;;
25962;SDS011;13760;52.588;13.406;2023-12-04T02:47:40;82.97;;;32.72;;
25962;SDS011;13760;52.588;13.406;2023-12-04T02:50:05;80.68;;;32.50;;
25962;SDS011;13760;52.588;13.406;2023-12-04T02:52:31;86.43;;;32.15;;
25962;SDS011;13760;52.588;13.406;2023-12-04T02:54:57;79.63;;;31.50;;
25962;SDS011;13760;52.588;13.406;2023-12-04T02:57:22;79.32;;;31.85;;
25962;SDS011;13760;52.588;13.406;2023-12-04T02:59:48;78.85;;;31.30;;
25962;SDS011;13760;52.588;13.406;2023-12-04T03:02:14;75.57;;;31.02;;
25962;SDS011;13760;52.588;13.406;2023-12-04T03:04:40;79.22;;;32.33;;
25962;SDS011;13760;52.588;13.406;2023-12-04T03:07:05;77.63;;;31.65;;
25962;SDS011;13760;52.588;13.406;2023-12-04T03:09:31;81.93;;;32.00;;
25962;SDS011;13760;52.588;13.406;2023-12-04T03:11:56;75.68;;;30.83;;
25962;SDS011;13760;52.588;13.406;2023-12-04T03:14:22;73.72;;;32.03;;
25962;SDS011;13760;52.588;13.406;2023-12-04T03:16:47;72.60;;;29.80;;
25962;SDS011;13760;52.588;13.406;2023-12-04T03:19:14;75.80;;;31.17;;
25962;SDS011;13760;52.588;13.406;2023-12-04T03:21:40;74.85;;;30.77;;
25962;SDS011;13760;52.588;13.406;2023-12-04T03:24:05;74.75;;;29.83;;
25962;SDS011;13760;52.588;13.406;2023-12-04T03:26:31;70.47;;;29.77;;
25962;SDS011;13760;52.588;13.406;2023-12-04T03:28:56;69.82;;;30.75;;
25962;SDS011;13760;52.588;13.406;2023-12-04T03:31:22;74.07;;;30.00;;
25962;SDS011;13760;52.588;13.406;2023-12-04T03:33:48;69.40;;;28.15;;
25962;SDS011;13760;52.588;13.406;2023-12-04T03:36:14;75.75;;;31.00;;
25962;SDS011;13760;52.588;13.406;2023-12-04T03:38:39;71.22;;;29.20;;
25962;SDS011;13760;52.588;13.406;2023-12-04T03:41:05;74.82;;;30.55;;
25962;SDS011;13760;52.588;13.406;2023-12-04T03:43:38;69.63;;;28.67;;
25962;SDS011;13760;52.588;13.406;2023-12-04T03:46:03;73.18;;;31.15;;
25962;SDS011;13760;52.588;13.406;2023-12-04T03:48:29;66.43;;;28.48;;
25962;SDS011;13760;52.588;13.406;2023-12-04T03:50:55;66.53;;;27.50;;
25962;SDS011;13760;52.588;13.406;2023-12-04T03:53:20;68.38;;;28.27;;
25962;SDS011;13760;52.588;13.406;2023-12-04T03:55:46;65.93;;;28.65;;
25962;SDS011;13760;52.588;13.406;2023-12-04T03:58:11;68.95;;;29.17;;
25962;SDS011;13760;52.588;13.406;2023-12-04T04:00:36;66.57;;;27.80;;
25962;SDS011;13760;52.588;13.406;2023-12-04T04:03:06;66.43;;;29.38;;
25962;SDS011;13760;52.588;13.406;2023-12-04T04:05:32;69.90;;;28.08;;
25962;SDS011;13760;52.588;13.406;2023-12-04T04:07:59;67.90;;;29.40;;
25962;SDS011;13760;52.588;13.406;2023-12-04T04:10:24;70.53;;;29.58;;
25962;SDS011;13760;52.588;13.406;2023-12-04T04:12:50;68.65;;;28.95;;
25962;SDS011;13760;52.588;13.406;2023-12-04T04:15:16;70.80;;;29.67;;
25962;SDS011;13760;52.588;13.406;2023-12-04T04:17:41;73.15;;;29.98;;
25962;SDS011;13760;52.588;13.406;2023-12-04T04:20:07;67.88;;;28.83;;
25962;SDS011;13760;52.588;13.406;2023-12-04T04:22:33;71.75;;;28.98;;
25962;SDS011;13760;52.588;13.406;2023-12-04T04:25:02;72.78;;;29.33;;
25962;SDS011;13760;52.588;13.406;2023-12-04T04:27:29;67.57;;;29.50;;
25962;SDS011;13760;52.588;13.406;2023-12-04T04:29:55;70.25;;;28.45;;
25962;SDS011;13760;52.588;13.406;2023-12-04T04:32:20;73.53;;;30.08;;
25962;SDS011;13760;52.588;13.406;2023-12-04T04:34:46;76.07;;;30.00;;
25962;SDS011;13760;52.588;13.406;2023-12-04T04:37:12;66.30;;;28.88;;
25962;SDS011;13760;52.588;13.406;2023-12-04T04:39:39;68.28;;;28.48;;
25962;SDS011;13760;52.588;13.406;2023-12-04T04:42:05;67.55;;;27.40;;
25962;SDS011;13760;52.588;13.406;2023-12-04T04:44:30;62.63;;;27.63;;
25962;SDS011;13760;52.588;13.406;2023-12-04T04:46:56;72.65;;;29.30;;
25962;SDS011;13760;52.588;13.406;2023-12-04T04:49:21;66.32;;;28.33;;
25962;SDS011;13760;52.588;13.406;2023-12-04T04:51:49;60.03;;;27.38;;
25962;SDS011;13760;52.588;13.406;2023-12-04T04:54:15;64.00;;;27.75;;
25962;SDS011;13760;52.588;13.406;2023-12-04T04:56:40;63.58;;;28.08;;
25962;SDS011;13760;52.588;13.406;2023-12-04T04:59:06;62.45;;;27.10;;
25962;SDS011;13760;52.588;13.406;2023-12-04T05:01:32;62.33;;;26.98;;
25962;SDS011;13760;52.588;13.406;2023-12-04T05:03:57;63.97;;;26.30;;
25962;SDS011;13760;52.588;13.406;2023-12-04T05:06:23;65.80;;;27.83;;
25962;SDS011;13760;52.588;13.406;2023-12-04T05:08:49;67.10;;;27.27;;
25962;SDS011;13760;52.588;13.406;2023-12-04T05:11:17;67.72;;;28.58;;
25962;SDS011;13760;52.588;13.406;2023-12-04T05:13:44;63.40;;;27.33;;
25962;SDS011;13760;52.588;13.406;2023-12-04T05:16:10;63.80;;;26.38;;
25962;SDS011;13760;52.588;13.406;2023-12-04T05:18:35;61.63;;;28.40;;
25962;SDS011;13760;52.588;13.406;2023-12-04T05:21:01;56.10;;;24.38;;
25962;SDS011;13760;52.588;13.406;2023-12-04T05:23:27;60.67;;;26.92;;
25962;SDS011;13760;52.588;13.406;2023-12-04T05:25:53;61.65;;;26.30;;
25962;SDS011;13760;52.588;13.406;2023-12-04T05:28:18;62.53;;;26.30;;
25962;SDS011;13760;52.588;13.406;2023-12-04T05:30:44;62.03;;;25.60;;
25962;SDS011;13760;52.588;13.406;2023-12-04T05:33:09;58.75;;;25.38;;
25962;SDS011;13760;52.588;13.406;2023-12-04T05:35:35;62.28;;;25.85;;
25962;SDS011;13760;52.588;13.406;2023-12-04T05:38:02;57.10;;;25.27;;
25962;SDS011;13760;52.588;13.406;2023-12-04T05:40:27;57.25;;;25.75;;
25962;SDS011;13760;52.588;13.406;2023-12-04T05:42:53;56.28;;;24.45;;
25962;SDS011;13760;52.588;13.406;2023-12-04T05:45:18;58.13;;;25.35;;
25962;SDS011;13760;52.588;13.406;2023-12-04T05:47:44;57.92;;;25.17;;
25962;SDS011;13760;52.588;13.406;2023-12-04T05:50:09;54.53;;;24.88;;
25962;SDS011;13760;52.588;13.406;2023-12-04T05:52:34;59.97;;;25.70;;
25962;SDS011;13760;52.588;13.406;2023-12-04T05:55:00;54.47;;;24.30;;
25962;SDS011;13760;52.588;13.406;2023-12-04T05:57:26;63.28;;;27.50;;
25962;SDS011;13760;52.588;13.406;2023-12-04T05:59:51;56.95;;;26.40;;
25962;SDS011;13760;52.588;13.406;2023-12-04T06:02:16;52.90;;;23.85;;
25962;SDS011;13760;52.588;13.406;2023-12-04T06:04:42;62.05;;;28.48;;
25962;SDS011;13760;52.588;13.406;2023-12-04T06:07:08;56.45;;;25.85;;
25962;SDS011;13760;52.588;13.406;2023-12-04T06:09:34;59.85;;;26.98;;
25962;SDS011;13760;52.588;13.406;2023-12-04T06:12:02;57.13;;;25.00;;
25962;SDS011;13760;52.588;13.406;2023-12-04T06:14:33;63.05;;;26.73;;
25962;SDS011;13760;52.588;13.406;2023-12-04T06:16:59;59.60;;;27.05;;
25962;SDS011;13760;52.588;13.406;2023-12-04T06:19:24;56.67;;;26.20;;
25962;SDS011;13760;52.588;13.406;2023-12-04T06:21:50;60.28;;;26.10;;
25962;SDS011;13760;52.588;13.406;2023-12-04T06:24:17;56.53;;;25.67;;
25962;SDS011;13760;52.588;13.406;2023-12-04T06:26:43;60.00;;;26.10;;
25962;SDS011;13760;52.588;13.406;2023-12-04T06:29:13;60.42;;;25.10;;
25962;SDS011;13760;52.588;13.406;2023-12-04T06:31:39;57.40;;;25.67;;
25962;SDS011;13760;52.588;13.406;2023-12-04T06:34:04;58.70;;;24.67;;
25962;SDS011;13760;52.588;13.406;2023-12-04T06:36:31;57.92;;;25.70;;
25962;SDS011;13760;52.588;13.406;2023-12-04T06:39:02;56.22;;;24.50;;
25962;SDS011;13760;52.588;13.406;2023-12-04T06:41:34;56.65;;;24.77;;
25962;SDS011;13760;52.588;13.406;2023-12-04T06:44:00;56.78;;;25.27;;
25962;SDS011;13760;52.588;13.406;2023-12-04T06:46:26;64.65;;;28.00;;
25962;SDS011;13760;52.588;13.406;2023-12-04T06:48:57;58.67;;;25.10;;
25962;SDS011;13760;52.588;13.406;2023-12-04T06:51:24;56.15;;;25.63;;
25962;SDS011;13760;52.588;13.406;2023-12-04T06:53:49;53.65;;;24.65;;
25962;SDS011;13760;52.588;13.406;2023-12-04T06:56:15;56.55;;;24.58;;
25962;SDS011;13760;52.588;13.406;2023-12-04T06:58:41;52.08;;;24.52;;
25962;SDS011;13760;52.588;13.406;2023-12-04T07:01:06;54.58;;;25.85;;
25962;SDS011;13760;52.588;13.406;2023-12-04T07:03:32;53.70;;;25.33;;
25962;SDS011;13760;52.588;13.406;2023-12-04T07:05:57;53.00;;;24.90;;
25962;SDS011;13760;52.588;13.406;2023-12-04T07:08:23;54.35;;;24.48;;
25962;SDS011;13760;52.588;13.406;2023-12-04T07:10:49;57.33;;;25.05;;
25962;SDS011;13760;52.588;13.406;2023-12-04T07:13:15;55.78;;;23.73;;
25962;SDS011;13760;52.588;13.406;2023-12-04T07:15:41;48.58;;;22.55;;
25962;SDS011;13760;52.588;13.406;2023-12-04T07:18:06;53.33;;;24.85;;
25962;SDS011;13760;52.588;13.406;2023-12-04T07:20:32;50.90;;;24.05;;
25962;SDS011;13760;52.588;13.406;2023-12-04T07:22:58;47.00;;;21.88;;
25962;SDS011;13760;52.588;13.406;2023-12-04T07:25:27;58.10;;;25.27;;
25962;SDS011;13760;52.588;13.406;2023-12-04T07:27:55;50.25;;;22.38;;
25962;SDS011;13760;52.588;13.406;2023-12-04T07:30:22;48.50;;;23.52;;
25962;SDS011;13760;52.588;13.406;2023-12-04T07:32:49;54.28;;;24.73;;
25962;SDS011;13760;52.588;13.406;2023-12-04T07:35:17;51.65;;;25.25;;
25962;SDS011;13760;52.588;13.406;2023-12-04T07:37:43;53.22;;;25.60;;
25962;SDS011;13760;52.588;13.406;2023-12-04T07:40:15;52.35;;;24.52;;
25962;SDS011;13760;52.588;13.406;2023-12-04T07:42:41;51.33;;;24.65;;
25962;SDS011;13760;52.588;13.406;2023-12-04T07:45:10;56.75;;;25.98;;
25962;SDS011;13760;52.588;13.406;2023-12-04T07:47:40;52.33;;;25.88;;
25962;SDS011;13760;52.588;13.406;2023-12-04T07:50:06;55.42;;;26.35;;
25962;SDS011;13760;52.588;13.406;2023-12-04T07:52:35;47.80;;;23.73;;
25962;SDS011;13760;52.588;13.406;2023-12-04T07:55:00;53.72;;;24.77;;
25962;SDS011;13760;52.588;13.406;2023-12-04T07:57:26;49.17;;;23.80;;
25962;SDS011;13760;52.588;13.406;2023-12-04T07:59:59;51.03;;;23.63;;
25962;SDS011;13760;52.588;13.406;2023-12-04T08:02:27;48.88;;;24.38;;
25962;SDS011;13760;52.588;13.406;2023-12-04T08:04:55;48.28;;;23.45;;
25962;SDS011;13760;52.588;13.406;2023-12-04T08:07:21;52.65;;;23.70;;
25962;SDS011;13760;52.588;13.406;2023-12-04T08:09:49;48.92;;;24.27;;
25962;SDS011;13760;52.588;13.406;2023-12-04T08:12:15;55.15;;;26.33;;
25962;SDS011;13760;52.588;13.406;2023-12-04T08:14:46;51.63;;;25.73;;
25962;SDS011;13760;52.588;13.406;2023-12-04T08:17:12;51.92;;;26.75;;
25962;SDS011;13760;52.588;13.406;2023-12-04T08:19:38;50.78;;;24.92;;
25962;SDS011;13760;52.588;13.406;2023-12-04T08:22:06;49.05;;;24.70;;
25962;SDS011;13760;52.588;13.406;2023-12-04T08:24:32;55.70;;;27.42;;
25962;SDS011;13760;52.588;13.406;2023-12-04T08:27:00;48.30;;;24.90;;
25962;SDS011;13760;52.588;13.406;2023-12-04T08:29:28;48.35;;;23.67;;
25962;SDS011;13760;52.588;13.406;2023-12-04T08:31:53;48.72;;;23.42;;
25962;SDS011;13760;52.588;13.406;2023-12-04T08:34:21;50.53;;;23.77;;
25962;SDS011;13760;52.588;13.406;2023-12-04T08:36:47;45.17;;;22.77;;
25962;SDS011;13760;52.588;13.406;2023-12-04T08:39:13;45.90;;;23.92;;
25962;SDS011;13760;52.588;13.406;2023-12-04T08:41:38;46.63;;;23.77;;
25962;SDS011;13760;52.588;13.406;2023-12-04T08:44:04;46.53;;;24.05;;
25962;SDS011;13760;52.588;13.406;2023-12-04T08:46:30;46.83;;;24.52;;
25962;SDS011;13760;52.588;13.406;2023-12-04T08:48:55;47.13;;;24.13;;
25962;SDS011;13760;52.588;13.406;2023-12-04T08:51:23;48.10;;;24.42;;
25962;SDS011;13760;52.588;13.406;2023-12-04T08:53:53;48.28;;;23.35;;
25962;SDS011;13760;52.588;13.406;2023-12-04T08:56:22;43.03;;;21.75;;
25962;SDS011;13760;52.588;13.406;2023-12-04T08:58:48;42.55;;;22.17;;
25962;SDS011;13760;52.588;13.406;2023-12-04T09:01:18;46.67;;;23.30;;
25962;SDS011;13760;52.588;13.406;2023-12-04T09:03:43;45.38;;;21.33;;
25962;SDS011;13760;52.588;13.406;2023-12-04T09:06:09;41.60;;;20.85;;
25962;SDS011;13760;52.588;13.406;2023-12-04T09:08:35;47.72;;;22.35;;
25962;SDS011;13760;52.588;13.406;2023-12-04T09:11:00;45.38;;;21.92;;
25962;SDS011;13760;52.588;13.406;2023-12-04T09:13:29;47.85;;;22.60;;
25962;SDS011;13760;52.588;13.406;2023-12-04T09:15:56;43.78;;;22.42;;
25962;SDS011;13760;52.588;13.406;2023-12-04T09:18:22;44.78;;;22.23;;
25962;SDS011;13760;52.588;13.406;2023-12-04T09:20:47;46.30;;;22.42;;
25962;SDS011;13760;52.588;13.406;2023-12-04T09:23:13;48.47;;;24.25;;
25962;SDS011;13760;52.588;13.406;2023-12-04T09:25:38;47.15;;;23.00;;
25962;SDS011;13760;52.588;13.406;2023-12-04T09:28:04;45.92;;;22.40;;
25962;SDS011;13760;52.588;13.406;2023-12-04T09:30:30;46.53;;;24.70;;
25962;SDS011;13760;52.588;13.406;2023-12-04T09:32:55;47.50;;;23.95;;
25962;SDS011;13760;52.588;13.406;2023-12-04T09:35:21;47.92;;;23.00;;
25962;SDS011;13760;52.588;13.406;2023-12-04T09:37:46;47.97;;;23.05;;
25962;SDS011;13760;52.588;13.406;2023-12-04T09:40:15;47.67;;;23.20;;
25962;SDS011;13760;52.588;13.406;2023-12-04T09:42:41;40.00;;;21.15;;
25962;SDS011;13760;52.588;13.406;2023-12-04T09:45:07;41.83;;;21.40;;
25962;SDS011;13760;52.588;13.406;2023-12-04T09:47:34;41.22;;;20.92;;
25962;SDS011;13760;52.588;13.406;2023-12-04T09:50:00;45.95;;;24.45;;
25962;SDS011;13760;52.588;13.406;2023-12-04T09:52:27;47.53;;;23.23;;
25962;SDS011;13760;52.588;13.406;2023-12-04T09:54:53;45.88;;;22.55;;
25962;SDS011;13760;52.588;13.406;2023-12-04T09:57:18;42.00;;;21.88;;
25962;SDS011;13760;52.588;13.406;2023-12-04T09:59:44;40.60;;;21.25;;
25962;SDS011;13760;52.588;13.406;2023-12-04T10:02:11;40.85;;;21.33;;
25962;SDS011;13760;52.588;13.406;2023-12-04T10:04:36;41.17;;;21.23;;
25962;SDS011;13760;52.588;13.406;2023-12-04T10:07:02;38.90;;;20.17;;
25962;SDS011;13760;52.588;13.406;2023-12-04T10:09:29;36.30;;;19.15;;
25962;SDS011;13760;52.588;13.406;2023-12-04T10:11:58;38.90;;;20.88;;
25962;SDS011;13760;52.588;13.406;2023-12-04T10:14:24;40.85;;;20.10;;
25962;SDS011;13760;52.588;13.406;2023-12-04T10:16:50;38.33;;;20.45;;
25962;SDS011;13760;52.588;13.406;2023-12-04T10:19:21;33.22;;;18.02;;
25962;SDS011;13760;52.588;13.406;2023-12-04T10:21:50;34.20;;;17.70;;
25962;SDS011;13760;52.588;13.406;2023-12-04T10:27:00;33.85;;;16.98;;
25962;SDS011;13760;52.588;13.406;2023-12-04T10:29:27;34.28;;;17.30;;
25962;SDS011;13760;52.588;13.406;2023-12-04T10:31:55;32.67;;;17.48;;
25962;SDS011;13760;52.588;13.406;2023-12-04T10:34:23;30.45;;;16.25;;
25962;SDS011;13760;52.588;13.406;2023-12-04T10:36:51;33.17;;;16.83;;
25962;SDS011;13760;52.588;13.406;2023-12-04T10:39:17;30.95;;;16.73;;
25962;SDS011;13760;52.588;13.406;2023-12-04T10:41:43;31.55;;;17.00;;
25962;SDS011;13760;52.588;13.406;2023-12-04T10:44:09;31.80;;;17.45;;
25962;SDS011;13760;52.588;13.406;2023-12-04T10:46:35;30.25;;;15.27;;
25962;SDS011;13760;52.588;13.406;2023-12-04T10:49:03;30.27;;;16.48;;
25962;SDS011;13760;52.588;13.406;2023-12-04T10:51:29;34.08;;;16.77;;
25962;SDS011;13760;52.588;13.406;2023-12-04T10:53:55;28.98;;;16.20;;
25962;SDS011;13760;52.588;13.406;2023-12-04T10:56:30;31.35;;;17.35;;
25962;SDS011;13760;52.588;13.406;2023-12-04T10:59:00;29.27;;;16.88;;
25962;SDS011;13760;52.588;13.406;2023-12-04T11:01:28;29.10;;;16.13;;
25962;SDS011;13760;52.588;13.406;2023-12-04T11:03:56;29.92;;;16.25;;
25962;SDS011;13760;52.588;13.406;2023-12-04T11:06:35;29.13;;;15.82;;
25962;SDS011;13760;52.588;13.406;2023-12-04T11:09:05;33.35;;;14.95;;
25962;SDS011;13760;52.588;13.406;2023-12-04T11:11:33;27.00;;;15.68;;
25962;SDS011;13760;52.588;13.406;2023-12-04T11:14:01;29.33;;;16.30;;
25962;SDS011;13760;52.588;13.406;2023-12-04T11:16:31;29.08;;;16.13;;
25962;SDS011;13760;52.588;13.406;2023-12-04T11:19:18;29.42;;;15.95;;
25962;SDS011;13760;52.588;13.406;2023-12-04T11:21:52;31.42;;;16.02;;
25962;SDS011;13760;52.588;13.406;2023-12-04T11:24:19;30.38;;;15.88;;
25962;SDS011;13760;52.588;13.406;2023-12-04T11:26:46;29.83;;;16.20;;
25962;SDS011;13760;52.588;13.406;2023-12-04T11:29:15;26.40;;;15.18;;
25962;SDS011;13760;52.588;13.406;2023-12-04T11:31:43;28.35;;;15.40;;
25962;SDS011;13760;52.588;13.406;2023-12-04T11:34:08;27.65;;;15.32;;
25962;SDS011;13760;52.588;13.406;2023-12-04T11:36:36;28.73;;;16.00;;
25962;SDS011;13760;52.588;13.406;2023-12-04T11:39:02;28.67;;;15.75;;
25962;SDS011;13760;52.588;13.406;2023-12-04T11:41:35;30.15;;;16.48;;
25962;SDS011;13760;52.588;13.406;2023-12-04T11:44:00;27.45;;;15.27;;
25962;SDS011;13760;52.588;13.406;2023-12-04T11:46:26;24.02;;;14.35;;
25962;SDS011;13760;52.588;13.406;2023-12-04T11:51:49;25.02;;;15.20;;
25962;SDS011;13760;52.588;13.406;2023-12-04T11:54:19;25.85;;;14.80;;
25962;SDS011;13760;52.588;13.406;2023-12-04T11:56:59;27.42;;;15.95;;
25962;SDS011;13760;52.588;13.406;2023-12-04T11:59:37;24.27;;;14.32;;
25962;SDS011;13760;52.588;13.406;2023-12-04T12:02:03;28.25;;;14.57;;
25962;SDS011;13760;52.588;13.406;2023-12-04T12:04:33;31.40;;;15.32;;
25962;SDS011;13760;52.588;13.406;2023-12-04T12:06:58;25.77;;;14.75;;
25962;SDS011;13760;52.588;13.406;2023-12-04T12:09:27;29.42;;;15.23;;
25962;SDS011;13760;52.588;13.406;2023-12-04T12:11:53;26.83;;;14.18;;
25962;SDS011;13760;52.588;13.406;2023-12-04T12:14:20;28.60;;;13.98;;
25962;SDS011;13760;52.588;13.406;2023-12-04T12:16:46;26.27;;;14.25;;
25962;SDS011;13760;52.588;13.406;2023-12-04T12:19:12;26.52;;;13.70;;
25962;SDS011;13760;52.588;13.406;2023-12-04T12:21:37;24.48;;;13.80;;
25962;SDS011;13760;52.588;13.406;2023-12-04T12:24:05;26.15;;;14.82;;
25962;SDS011;13760;52.588;13.406;2023-12-04T12:26:31;23.85;;;13.68;;
25962;SDS011;13760;52.588;13.406;2023-12-04T12:28:57;24.30;;;13.82;;
25962;SDS011;13760;52.588;13.406;2023-12-04T12:31:22;23.67;;;13.98;;
25962;SDS011;13760;52.588;13.406;2023-12-04T12:33:48;27.08;;;14.88;;
25962;SDS011;13760;52.588;13.406;2023-12-04T12:36:14;24.25;;;14.68;;
25962;SDS011;13760;52.588;13.406;2023-12-04T12:38:42;25.85;;;14.35;;
25962;SDS011;13760;52.588;13.406;2023-12-04T12:41:14;25.90;;;13.80;;
25962;SDS011;13760;52.588;13.406;2023-12-04T12:43:41;25.17;;;14.55;;
25962;SDS011;13760;52.588;13.406;2023-12-04T12:46:06;24.55;;;13.85;;
25962;SDS011;13760;52.588;13.406;2023-12-04T12:48:32;23.35;;;13.85;;
25962;SDS011;13760;52.588;13.406;2023-12-04T12:50:58;25.58;;;14.43;;
25962;SDS011;13760;52.588;13.406;2023-12-04T12:53:23;23.40;;;13.88;;
25962;SDS011;13760;52.588;13.406;2023-12-04T12:55:49;25.10;;;15.27;;
25962;SDS011;13760;52.588;13.406;2023-12-04T12:58:14;23.38;;;13.65;;
25962;SDS011;13760;52.588;13.406;2023-12-04T13:00:45;26.58;;;15.63;;
25962;SDS011;13760;52.588;13.406;2023-12-04T13:03:18;25.00;;;14.32;;
25962;SDS011;13760;52.588;13.406;2023-12-04T13:05:44;23.98;;;13.85;;
25962;SDS011;13760;52.588;13.406;2023-12-04T13:08:10;24.27;;;14.32;;
25962;SDS011;13760;52.588;13.406;2023-12-04T13:10:42;24.95;;;14.35;;
25962;SDS011;13760;52.588;13.406;2023-12-04T13:13:14;24.60;;;13.88;;
25962;SDS011;13760;52.588;13.406;2023-12-04T13:15:42;22.95;;;13.00;;
25962;SDS011;13760;52.588;13.406;2023-12-04T13:18:08;26.20;;;14.30;;
25962;SDS011;13760;52.588;13.406;2023-12-04T13:20:34;26.35;;;14.18;;
25962;SDS011;13760;52.588;13.406;2023-12-04T13:23:00;24.73;;;13.48;;
25962;SDS011;13760;52.588;13.406;2023-12-04T13:25:26;23.25;;;13.95;;
25962;SDS011;13760;52.588;13.406;2023-12-04T13:27:52;26.05;;;14.82;;
25962;SDS011;13760;52.588;13.406;2023-12-04T13:30:18;26.13;;;14.70;;
25962;SDS011;13760;52.588;13.406;2023-12-04T13:32:44;26.13;;;15.38;;
25962;SDS011;13760;52.588;13.406;2023-12-04T13:35:10;27.50;;;15.18;;
25962;SDS011;13760;52.588;13.406;2023-12-04T13:37:36;28.13;;;15.93;;
25962;SDS011;13760;52.588;13.406;2023-12-04T13:40:04;26.73;;;15.77;;
25962;SDS011;13760;52.588;13.406;2023-12-04T13:42:34;26.73;;;15.23;;
25962;SDS011;13760;52.588;13.406;2023-12-04T13:45:18;27.02;;;13.85;;
25962;SDS011;13760;52.588;13.406;2023-12-04T13:47:47;23.75;;;14.02;;
25962;SDS011;13760;52.588;13.406;2023-12-04T13:50:14;24.85;;;14.70;;
25962;SDS011;13760;52.588;13.406;2023-12-04T13:52:39;25.35;;;14.50;;
25962;SDS011;13760;52.588;13.406;2023-12-04T13:55:07;25.25;;;14.30;;
25962;SDS011;13760;52.588;13.406;2023-12-04T13:57:45;26.65;;;14.75;;
25962;SDS011;13760;52.588;13.406;2023-12-04T14:00:23;26.67;;;14.43;;
25962;SDS011;13760;52.588;13.406;2023-12-04T14:02:48;26.90;;;15.32;;
25962;SDS011;13760;52.588;13.406;2023-12-04T14:05:18;25.83;;;15.43;;
25962;SDS011;13760;52.588;13.406;2023-12-04T14:07:45;28.55;;;15.23;;
25962;SDS011;13760;52.588;13.406;2023-12-04T14:10:12;24.40;;;14.40;;
25962;SDS011;13760;52.588;13.406;2023-12-04T14:12:40;27.10;;;15.10;;